sensor_id;sensor_type;location;lat;lon;timestamp;P1;durP1;ratioP1;P2;durP2;ratioP2
35606;SDS011;21729;58.392;15.656;2022-07-15T00:02:07;0.22;;;0.22;;
35606;SDS011;21729;58.392;15.656;2022-07-15T00:04:35;0.22;;;0.22;;
35606;SDS011;21729;58.392;15.656;2022-07-15T00:07:03;1.00;;;0.35;;
35606;SDS011;21729;58.392;15.656;2022-07-15T00:09:31;0.70;;;0.20;;
35606;SDS011;21729;58.392;15.656;2022-07-15T00:12:16;0.55;;;0.30;;
35606;SDS011;21729;58.392;15.656;2022-07-15T00:14:44;0.30;;;0.10;;
35606;SDS011;21729;58.392;15.656;2022-07-15T00:17:11;0.90;;;0.20;;
35606;SDS011;21729;58.392;15.656;2022-07-15T00:19:38;0.20;;;0.20;;
35606;SDS011;21729;58.392;15.656;2022-07-15T00:22:06;0.20;;;0.20;;
35606;SDS011;21729;58.392;15.656;2022-07-15T00:24:33;0.25;;;0.13;;
35606;SDS011;21729;58.392;15.656;2022-07-15T00:27:00;0.20;;;0.20;;
35606;SDS011;21729;58.392;15.656;2022-07-15T00:29:28;0.28;;;0.20;;
35606;SDS011;21729;58.392;15.656;2022-07-15T00:31:57;0.35;;;0.10;;
35606;SDS011;21729;58.392;15.656;2022-07-15T00:34:24;0.30;;;0.30;;
35606;SDS011;21729;58.392;15.656;2022-07-15T00:36:51;0.20;;;0.20;;
35606;SDS011;21729;58.392;15.656;2022-07-15T00:39:19;0.10;;;0.10;;
35606;SDS011;21729;58.392;15.656;2022-07-15T00:41:46;0.10;;;0.10;;
35606;SDS011;21729;58.392;15.656;2022-07-15T00:44:14;0.10;;;0.10;;
35606;SDS011;21729;58.392;15.656;2022-07-15T00:46:41;0.20;;;0.20;;
35606;SDS011;21729;58.392;15.656;2022-07-15T00:49:10;0.60;;;0.20;;
35606;SDS011;21729;58.392;15.656;2022-07-15T00:51:41;0.30;;;0.25;;
35606;SDS011;21729;58.392;15.656;2022-07-15T00:54:10;1.40;;;0.20;;
35606;SDS011;21729;58.392;15.656;2022-07-15T00:56:40;0.17;;;0.10;;
35606;SDS011;21729;58.392;15.656;2022-07-15T00:59:12;0.20;;;0.10;;
35606;SDS011;21729;58.392;15.656;2022-07-15T01:01:40;0.40;;;0.10;;
35606;SDS011;21729;58.392;15.656;2022-07-15T01:04:09;0.20;;;0.20;;
35606;SDS011;21729;58.392;15.656;2022-07-15T01:06:38;0.80;;;0.20;;
35606;SDS011;21729;58.392;15.656;2022-07-15T01:09:06;0.30;;;0.20;;
35606;SDS011;21729;58.392;15.656;2022-07-15T01:11:33;0.20;;;0.10;;
35606;SDS011;21729;58.392;15.656;2022-07-15T01:14:02;0.10;;;0.10;;
35606;SDS011;21729;58.392;15.656;2022-07-15T01:16:29;0.70;;;0.10;;
35606;SDS011;21729;58.392;15.656;2022-07-15T01:18:57;0.10;;;0.10;;
35606;SDS011;21729;58.392;15.656;2022-07-15T01:21:25;0.35;;;0.20;;
35606;SDS011;21729;58.392;15.656;2022-07-15T01:23:52;0.60;;;0.20;;
35606;SDS011;21729;58.392;15.656;2022-07-15T01:26:19;0.10;;;0.10;;
35606;SDS011;21729;58.392;15.656;2022-07-15T01:28:46;0.10;;;0.10;;
35606;SDS011;21729;58.392;15.656;2022-07-15T01:31:13;0.13;;;0.13;;
35606;SDS011;21729;58.392;15.656;2022-07-15T01:33:40;0.20;;;0.20;;
35606;SDS011;21729;58.392;15.656;2022-07-15T01:36:08;0.45;;;0.20;;
35606;SDS011;21729;58.392;15.656;2022-07-15T01:38:37;0.10;;;0.10;;
35606;SDS011;21729;58.392;15.656;2022-07-15T01:41:04;0.10;;;0.10;;
35606;SDS011;21729;58.392;15.656;2022-07-15T01:43:31;0.10;;;0.10;;
35606;SDS011;21729;58.392;15.656;2022-07-15T01:45:58;0.20;;;0.20;;
35606;SDS011;21729;58.392;15.656;2022-07-15T01:48:25;0.30;;;0.10;;
35606;SDS011;21729;58.392;15.656;2022-07-15T01:51:10;0.15;;;0.15;;
35606;SDS011;21729;58.392;15.656;2022-07-15T01:53:38;0.20;;;0.20;;
35606;SDS011;21729;58.392;15.656;2022-07-15T01:56:06;0.98;;;0.10;;
35606;SDS011;21729;58.392;15.656;2022-07-15T01:58:33;0.10;;;0.10;;
35606;SDS011;21729;58.392;15.656;2022-07-15T02:01:00;0.60;;;0.10;;
35606;SDS011;21729;58.392;15.656;2022-07-15T02:03:27;0.10;;;0.10;;
35606;SDS011;21729;58.392;15.656;2022-07-15T02:05:54;0.10;;;0.10;;
35606;SDS011;21729;58.392;15.656;2022-07-15T02:08:21;0.10;;;0.10;;
35606;SDS011;21729;58.392;15.656;2022-07-15T02:10:50;0.20;;;0.10;;
35606;SDS011;21729;58.392;15.656;2022-07-15T02:13:17;0.20;;;0.10;;
35606;SDS011;21729;58.392;15.656;2022-07-15T02:15:44;0.10;;;0.10;;
35606;SDS011;21729;58.392;15.656;2022-07-15T02:18:11;0.20;;;0.20;;
35606;SDS011;21729;58.392;15.656;2022-07-15T02:20:38;0.30;;;0.10;;
35606;SDS011;21729;58.392;15.656;2022-07-15T02:23:05;0.20;;;0.20;;
35606;SDS011;21729;58.392;15.656;2022-07-15T02:25:33;0.20;;;0.10;;
35606;SDS011;21729;58.392;15.656;2022-07-15T02:28:02;0.00;;;0.00;;
35606;SDS011;21729;58.392;15.656;2022-07-15T02:30:32;0.10;;;0.10;;
35606;SDS011;21729;58.392;15.656;2022-07-15T02:33:01;0.30;;;0.17;;
35606;SDS011;21729;58.392;15.656;2022-07-15T02:35:29;0.70;;;0.10;;
35606;SDS011;21729;58.392;15.656;2022-07-15T02:37:57;0.80;;;0.10;;
35606;SDS011;21729;58.392;15.656;2022-07-15T02:40:26;0.85;;;0.10;;
35606;SDS011;21729;58.392;15.656;2022-07-15T02:42:54;0.10;;;0.10;;
35606;SDS011;21729;58.392;15.656;2022-07-15T02:45:25;0.47;;;0.10;;
35606;SDS011;21729;58.392;15.656;2022-07-15T02:47:54;0.30;;;0.10;;
35606;SDS011;21729;58.392;15.656;2022-07-15T02:50:22;0.77;;;0.10;;
35606;SDS011;21729;58.392;15.656;2022-07-15T02:52:49;0.30;;;0.10;;
35606;SDS011;21729;58.392;15.656;2022-07-15T02:55:16;0.10;;;0.10;;
35606;SDS011;21729;58.392;15.656;2022-07-15T02:57:44;0.20;;;0.08;;
35606;SDS011;21729;58.392;15.656;2022-07-15T03:00:12;0.13;;;0.00;;
35606;SDS011;21729;58.392;15.656;2022-07-15T03:02:44;0.90;;;0.10;;
35606;SDS011;21729;58.392;15.656;2022-07-15T03:05:11;0.30;;;0.00;;
35606;SDS011;21729;58.392;15.656;2022-07-15T03:07:39;0.00;;;0.00;;
35606;SDS011;21729;58.392;15.656;2022-07-15T03:10:07;1.05;;;0.30;;
35606;SDS011;21729;58.392;15.656;2022-07-15T03:12:35;0.10;;;0.10;;
35606;SDS011;21729;58.392;15.656;2022-07-15T03:15:03;0.60;;;0.10;;
35606;SDS011;21729;58.392;15.656;2022-07-15T03:17:31;0.20;;;0.20;;
35606;SDS011;21729;58.392;15.656;2022-07-15T03:20:00;0.90;;;0.20;;
35606;SDS011;21729;58.392;15.656;2022-07-15T03:22:27;1.10;;;0.25;;
35606;SDS011;21729;58.392;15.656;2022-07-15T03:24:54;0.52;;;0.13;;
35606;SDS011;21729;58.392;15.656;2022-07-15T03:27:21;0.30;;;0.20;;
35606;SDS011;21729;58.392;15.656;2022-07-15T03:29:48;0.93;;;0.15;;
35606;SDS011;21729;58.392;15.656;2022-07-15T03:32:16;0.30;;;0.10;;
35606;SDS011;21729;58.392;15.656;2022-07-15T03:34:44;0.50;;;0.20;;
35606;SDS011;21729;58.392;15.656;2022-07-15T03:37:13;1.00;;;0.20;;
35606;SDS011;21729;58.392;15.656;2022-07-15T03:39:40;0.20;;;0.20;;
35606;SDS011;21729;58.392;15.656;2022-07-15T03:42:07;0.50;;;0.20;;
35606;SDS011;21729;58.392;15.656;2022-07-15T03:44:34;0.55;;;0.20;;
35606;SDS011;21729;58.392;15.656;2022-07-15T03:47:01;0.43;;;0.20;;
35606;SDS011;21729;58.392;15.656;2022-07-15T03:49:28;0.40;;;0.20;;
35606;SDS011;21729;58.392;15.656;2022-07-15T03:51:56;0.40;;;0.30;;
35606;SDS011;21729;58.392;15.656;2022-07-15T03:54:24;2.15;;;0.45;;
35606;SDS011;21729;58.392;15.656;2022-07-15T03:56:51;0.73;;;0.20;;
35606;SDS011;21729;58.392;15.656;2022-07-15T03:59:18;0.20;;;0.20;;
35606;SDS011;21729;58.392;15.656;2022-07-15T04:01:47;0.80;;;0.20;;
35606;SDS011;21729;58.392;15.656;2022-07-15T04:04:15;0.57;;;0.30;;
35606;SDS011;21729;58.392;15.656;2022-07-15T04:06:42;0.83;;;0.30;;
35606;SDS011;21729;58.392;15.656;2022-07-15T04:09:10;0.47;;;0.32;;
35606;SDS011;21729;58.392;15.656;2022-07-15T04:11:39;0.85;;;0.30;;
35606;SDS011;21729;58.392;15.656;2022-07-15T04:14:07;1.00;;;0.30;;
35606;SDS011;21729;58.392;15.656;2022-07-15T04:16:36;0.50;;;0.20;;
35606;SDS011;21729;58.392;15.656;2022-07-15T04:19:03;2.13;;;0.47;;
35606;SDS011;21729;58.392;15.656;2022-07-15T04:21:30;0.55;;;0.20;;
35606;SDS011;21729;58.392;15.656;2022-07-15T04:23:58;1.05;;;0.35;;
35606;SDS011;21729;58.392;15.656;2022-07-15T04:26:26;1.67;;;0.60;;
35606;SDS011;21729;58.392;15.656;2022-07-15T04:28:55;0.52;;;0.40;;
35606;SDS011;21729;58.392;15.656;2022-07-15T04:31:22;2.22;;;0.40;;
35606;SDS011;21729;58.392;15.656;2022-07-15T04:33:49;0.90;;;0.40;;
35606;SDS011;21729;58.392;15.656;2022-07-15T04:36:16;2.20;;;0.38;;
35606;SDS011;21729;58.392;15.656;2022-07-15T04:38:43;1.10;;;0.40;;
35606;SDS011;21729;58.392;15.656;2022-07-15T04:41:10;1.45;;;0.40;;
35606;SDS011;21729;58.392;15.656;2022-07-15T04:43:37;0.95;;;0.40;;
35606;SDS011;21729;58.392;15.656;2022-07-15T04:46:06;3.13;;;0.70;;
35606;SDS011;21729;58.392;15.656;2022-07-15T04:48:33;1.75;;;0.40;;
35606;SDS011;21729;58.392;15.656;2022-07-15T04:51:18;0.52;;;0.40;;
35606;SDS011;21729;58.392;15.656;2022-07-15T04:53:45;0.70;;;0.30;;
35606;SDS011;21729;58.392;15.656;2022-07-15T04:56:12;0.75;;;0.20;;
35606;SDS011;21729;58.392;15.656;2022-07-15T04:58:40;1.73;;;0.60;;
35606;SDS011;21729;58.392;15.656;2022-07-15T05:01:09;1.52;;;0.50;;
35606;SDS011;21729;58.392;15.656;2022-07-15T05:03:37;1.30;;;0.57;;
35606;SDS011;21729;58.392;15.656;2022-07-15T05:06:04;0.52;;;0.30;;
35606;SDS011;21729;58.392;15.656;2022-07-15T05:08:31;0.52;;;0.50;;
35606;SDS011;21729;58.392;15.656;2022-07-15T05:10:59;1.27;;;0.52;;
35606;SDS011;21729;58.392;15.656;2022-07-15T05:13:26;2.70;;;0.52;;
35606;SDS011;21729;58.392;15.656;2022-07-15T05:15:53;1.55;;;0.43;;
35606;SDS011;21729;58.392;15.656;2022-07-15T05:18:21;3.10;;;0.50;;
35606;SDS011;21729;58.392;15.656;2022-07-15T05:20:48;1.48;;;0.47;;
35606;SDS011;21729;58.392;15.656;2022-07-15T05:23:16;2.30;;;0.60;;
35606;SDS011;21729;58.392;15.656;2022-07-15T05:25:44;0.63;;;0.33;;
35606;SDS011;21729;58.392;15.656;2022-07-15T05:28:11;1.53;;;0.40;;
35606;SDS011;21729;58.392;15.656;2022-07-15T05:30:38;1.55;;;0.50;;
35606;SDS011;21729;58.392;15.656;2022-07-15T05:33:05;2.00;;;0.50;;
35606;SDS011;21729;58.392;15.656;2022-07-15T05:35:34;2.22;;;0.35;;
35606;SDS011;21729;58.392;15.656;2022-07-15T05:38:01;1.40;;;0.30;;
35606;SDS011;21729;58.392;15.656;2022-07-15T05:40:28;1.33;;;0.68;;
35606;SDS011;21729;58.392;15.656;2022-07-15T05:42:55;2.83;;;0.73;;
35606;SDS011;21729;58.392;15.656;2022-07-15T05:45:23;1.90;;;0.68;;
35606;SDS011;21729;58.392;15.656;2022-07-15T05:47:50;1.20;;;0.53;;
35606;SDS011;21729;58.392;15.656;2022-07-15T05:50:18;1.10;;;0.50;;
35606;SDS011;21729;58.392;15.656;2022-07-15T05:52:47;2.15;;;0.77;;
35606;SDS011;21729;58.392;15.656;2022-07-15T05:55:15;1.90;;;0.63;;
35606;SDS011;21729;58.392;15.656;2022-07-15T05:57:42;0.90;;;0.50;;
35606;SDS011;21729;58.392;15.656;2022-07-15T06:00:10;1.60;;;0.70;;
35606;SDS011;21729;58.392;15.656;2022-07-15T06:02:38;1.27;;;0.60;;
35606;SDS011;21729;58.392;15.656;2022-07-15T06:05:05;0.93;;;0.50;;
35606;SDS011;21729;58.392;15.656;2022-07-15T06:07:33;1.52;;;0.60;;
35606;SDS011;21729;58.392;15.656;2022-07-15T06:10:02;1.10;;;0.70;;
35606;SDS011;21729;58.392;15.656;2022-07-15T06:12:30;1.33;;;0.63;;
35606;SDS011;21729;58.392;15.656;2022-07-15T06:14:57;1.48;;;0.60;;
35606;SDS011;21729;58.392;15.656;2022-07-15T06:17:25;1.30;;;0.60;;
35606;SDS011;21729;58.392;15.656;2022-07-15T06:19:52;2.03;;;0.60;;
35606;SDS011;21729;58.392;15.656;2022-07-15T06:22:19;1.77;;;0.50;;
35606;SDS011;21729;58.392;15.656;2022-07-15T06:24:46;2.97;;;0.60;;
35606;SDS011;21729;58.392;15.656;2022-07-15T06:27:14;0.95;;;0.50;;
35606;SDS011;21729;58.392;15.656;2022-07-15T06:29:41;1.27;;;0.60;;
35606;SDS011;21729;58.392;15.656;2022-07-15T06:32:08;1.57;;;0.70;;
35606;SDS011;21729;58.392;15.656;2022-07-15T06:34:37;1.80;;;0.70;;
35606;SDS011;21729;58.392;15.656;2022-07-15T06:37:04;1.20;;;0.63;;
35606;SDS011;21729;58.392;15.656;2022-07-15T06:39:31;1.30;;;0.50;;
35606;SDS011;21729;58.392;15.656;2022-07-15T06:41:59;1.33;;;0.70;;
35606;SDS011;21729;58.392;15.656;2022-07-15T06:44:28;1.33;;;0.60;;
35606;SDS011;21729;58.392;15.656;2022-07-15T06:46:55;1.55;;;0.73;;
35606;SDS011;21729;58.392;15.656;2022-07-15T06:49:22;1.20;;;0.60;;
35606;SDS011;21729;58.392;15.656;2022-07-15T06:51:49;1.30;;;0.50;;
35606;SDS011;21729;58.392;15.656;2022-07-15T06:54:17;1.58;;;0.70;;
35606;SDS011;21729;58.392;15.656;2022-07-15T06:56:44;1.98;;;0.70;;
35606;SDS011;21729;58.392;15.656;2022-07-15T06:59:11;1.50;;;0.60;;
35606;SDS011;21729;58.392;15.656;2022-07-15T07:01:40;1.42;;;0.70;;
35606;SDS011;21729;58.392;15.656;2022-07-15T07:04:07;1.25;;;0.57;;
35606;SDS011;21729;58.392;15.656;2022-07-15T07:06:34;0.90;;;0.60;;
35606;SDS011;21729;58.392;15.656;2022-07-15T07:09:01;1.88;;;0.60;;
35606;SDS011;21729;58.392;15.656;2022-07-15T07:11:29;1.90;;;0.70;;
35606;SDS011;21729;58.392;15.656;2022-07-15T07:13:57;1.63;;;0.63;;
35606;SDS011;21729;58.392;15.656;2022-07-15T07:16:25;1.42;;;0.52;;
35606;SDS011;21729;58.392;15.656;2022-07-15T07:18:54;1.52;;;0.60;;
35606;SDS011;21729;58.392;15.656;2022-07-15T07:21:21;1.92;;;0.70;;
35606;SDS011;21729;58.392;15.656;2022-07-15T07:23:48;1.20;;;0.50;;
35606;SDS011;21729;58.392;15.656;2022-07-15T07:26:15;2.33;;;0.70;;
35606;SDS011;21729;58.392;15.656;2022-07-15T07:28:43;1.23;;;0.70;;
35606;SDS011;21729;58.392;15.656;2022-07-15T07:31:11;1.42;;;0.70;;
35606;SDS011;21729;58.392;15.656;2022-07-15T07:33:41;1.48;;;0.50;;
35606;SDS011;21729;58.392;15.656;2022-07-15T07:36:09;1.50;;;0.50;;
35606;SDS011;21729;58.392;15.656;2022-07-15T07:38:37;1.40;;;0.60;;
35606;SDS011;21729;58.392;15.656;2022-07-15T07:41:04;1.92;;;0.60;;
35606;SDS011;21729;58.392;15.656;2022-07-15T07:43:32;1.35;;;0.70;;
35606;SDS011;21729;58.392;15.656;2022-07-15T07:46:00;0.90;;;0.60;;
35606;SDS011;21729;58.392;15.656;2022-07-15T07:48:27;1.05;;;0.50;;
35606;SDS011;21729;58.392;15.656;2022-07-15T07:50:55;0.90;;;0.57;;
35606;SDS011;21729;58.392;15.656;2022-07-15T07:53:24;2.35;;;0.80;;
35606;SDS011;21729;58.392;15.656;2022-07-15T07:55:51;1.13;;;0.50;;
35606;SDS011;21729;58.392;15.656;2022-07-15T07:58:18;1.40;;;0.60;;
35606;SDS011;21729;58.392;15.656;2022-07-15T08:00:45;0.70;;;0.40;;
35606;SDS011;21729;58.392;15.656;2022-07-15T08:03:13;0.88;;;0.50;;
35606;SDS011;21729;58.392;15.656;2022-07-15T08:05:41;1.10;;;0.30;;
35606;SDS011;21729;58.392;15.656;2022-07-15T08:08:09;0.87;;;0.47;;
35606;SDS011;21729;58.392;15.656;2022-07-15T08:10:39;1.80;;;0.50;;
35606;SDS011;21729;58.392;15.656;2022-07-15T08:13:07;1.20;;;0.50;;
35606;SDS011;21729;58.392;15.656;2022-07-15T08:15:34;1.23;;;0.50;;
35606;SDS011;21729;58.392;15.656;2022-07-15T08:18:01;1.23;;;0.50;;
35606;SDS011;21729;58.392;15.656;2022-07-15T08:20:28;1.10;;;0.50;;
35606;SDS011;21729;58.392;15.656;2022-07-15T08:22:57;1.42;;;0.40;;
35606;SDS011;21729;58.392;15.656;2022-07-15T08:25:25;2.05;;;0.52;;
35606;SDS011;21729;58.392;15.656;2022-07-15T08:27:54;1.52;;;0.50;;
35606;SDS011;21729;58.392;15.656;2022-07-15T08:30:24;0.75;;;0.40;;
35606;SDS011;21729;58.392;15.656;2022-07-15T08:32:51;1.10;;;0.52;;
35606;SDS011;21729;58.392;15.656;2022-07-15T08:35:19;0.60;;;0.40;;
35606;SDS011;21729;58.392;15.656;2022-07-15T08:37:47;0.77;;;0.50;;
35606;SDS011;21729;58.392;15.656;2022-07-15T08:40:14;2.15;;;0.52;;
35606;SDS011;21729;58.392;15.656;2022-07-15T08:42:42;0.98;;;0.40;;
35606;SDS011;21729;58.392;15.656;2022-07-15T08:45:13;1.10;;;0.50;;
35606;SDS011;21729;58.392;15.656;2022-07-15T08:47:42;0.75;;;0.45;;
35606;SDS011;21729;58.392;15.656;2022-07-15T08:50:13;0.37;;;0.30;;
35606;SDS011;21729;58.392;15.656;2022-07-15T08:52:42;1.60;;;0.55;;
35606;SDS011;21729;58.392;15.656;2022-07-15T08:55:10;0.95;;;0.55;;
35606;SDS011;21729;58.392;15.656;2022-07-15T08:57:37;0.75;;;0.43;;
35606;SDS011;21729;58.392;15.656;2022-07-15T09:00:05;1.42;;;0.60;;
35606;SDS011;21729;58.392;15.656;2022-07-15T09:02:37;1.15;;;0.57;;
35606;SDS011;21729;58.392;15.656;2022-07-15T09:05:18;1.30;;;0.63;;
35606;SDS011;21729;58.392;15.656;2022-07-15T09:07:51;0.68;;;0.30;;
35606;SDS011;21729;58.392;15.656;2022-07-15T09:10:19;0.50;;;0.40;;
35606;SDS011;21729;58.392;15.656;2022-07-15T09:12:50;0.52;;;0.35;;
35606;SDS011;21729;58.392;15.656;2022-07-15T09:15:28;1.70;;;0.50;;
35606;SDS011;21729;58.392;15.656;2022-07-15T09:18:05;1.13;;;0.40;;
35606;SDS011;21729;58.392;15.656;2022-07-15T09:20:34;1.00;;;0.40;;
35606;SDS011;21729;58.392;15.656;2022-07-15T09:23:01;1.13;;;0.60;;
35606;SDS011;21729;58.392;15.656;2022-07-15T09:25:30;1.17;;;0.40;;
35606;SDS011;21729;58.392;15.656;2022-07-15T09:28:00;1.00;;;0.43;;
35606;SDS011;21729;58.392;15.656;2022-07-15T09:30:29;2.00;;;0.43;;
35606;SDS011;21729;58.392;15.656;2022-07-15T09:33:18;1.73;;;0.57;;
35606;SDS011;21729;58.392;15.656;2022-07-15T09:36:05;0.55;;;0.50;;
35606;SDS011;21729;58.392;15.656;2022-07-15T09:38:38;1.40;;;0.40;;
35606;SDS011;21729;58.392;15.656;2022-07-15T09:41:20;1.27;;;0.40;;
35606;SDS011;21729;58.392;15.656;2022-07-15T09:43:55;1.27;;;0.30;;
35606;SDS011;21729;58.392;15.656;2022-07-15T09:46:27;0.65;;;0.25;;
35606;SDS011;21729;58.392;15.656;2022-07-15T09:49:06;1.45;;;0.32;;
35606;SDS011;21729;58.392;15.656;2022-07-15T09:51:35;2.37;;;0.40;;
35606;SDS011;21729;58.392;15.656;2022-07-15T09:54:09;1.10;;;0.30;;
35606;SDS011;21729;58.392;15.656;2022-07-15T09:56:38;1.88;;;0.40;;
35606;SDS011;21729;58.392;15.656;2022-07-15T09:59:06;0.93;;;0.30;;
35606;SDS011;21729;58.392;15.656;2022-07-15T10:01:33;0.82;;;0.20;;
35606;SDS011;21729;58.392;15.656;2022-07-15T10:04:01;1.85;;;0.30;;
35606;SDS011;21729;58.392;15.656;2022-07-15T10:06:31;0.55;;;0.35;;
35606;SDS011;21729;58.392;15.656;2022-07-15T10:09:01;0.40;;;0.17;;
35606;SDS011;21729;58.392;15.656;2022-07-15T10:11:31;0.80;;;0.20;;
35606;SDS011;21729;58.392;15.656;2022-07-15T10:17:17;1.00;;;0.30;;
35606;SDS011;21729;58.392;15.656;2022-07-15T10:20:01;0.77;;;0.30;;
35606;SDS011;21729;58.392;15.656;2022-07-15T10:22:53;1.05;;;0.40;;
35606;SDS011;21729;58.392;15.656;2022-07-15T10:25:39;0.60;;;0.25;;
35606;SDS011;21729;58.392;15.656;2022-07-15T10:28:24;1.15;;;0.40;;
35606;SDS011;21729;58.392;15.656;2022-07-15T10:31:16;1.00;;;0.40;;
35606;SDS011;21729;58.392;15.656;2022-07-15T10:36:52;1.08;;;0.50;;
35606;SDS011;21729;58.392;15.656;2022-07-15T10:39:25;1.25;;;0.50;;
35606;SDS011;21729;58.392;15.656;2022-07-15T10:41:55;0.70;;;0.32;;
35606;SDS011;21729;58.392;15.656;2022-07-15T10:44:23;0.93;;;0.40;;
35606;SDS011;21729;58.392;15.656;2022-07-15T10:49:45;0.75;;;0.40;;
35606;SDS011;21729;58.392;15.656;2022-07-15T10:52:13;2.15;;;0.50;;
35606;SDS011;21729;58.392;15.656;2022-07-15T10:54:47;1.38;;;0.45;;
35606;SDS011;21729;58.392;15.656;2022-07-15T11:00:26;1.13;;;0.50;;
35606;SDS011;21729;58.392;15.656;2022-07-15T11:03:02;0.40;;;0.30;;
35606;SDS011;21729;58.392;15.656;2022-07-15T11:05:31;1.08;;;0.50;;
35606;SDS011;21729;58.392;15.656;2022-07-15T11:07:59;1.45;;;0.40;;
35606;SDS011;21729;58.392;15.656;2022-07-15T11:10:28;5.72;;;0.60;;
35606;SDS011;21729;58.392;15.656;2022-07-15T11:12:56;0.40;;;0.28;;
35606;SDS011;21729;58.392;15.656;2022-07-15T11:15:29;0.77;;;0.43;;
35606;SDS011;21729;58.392;15.656;2022-07-15T11:17:57;0.93;;;0.40;;
35606;SDS011;21729;58.392;15.656;2022-07-15T11:20:26;0.35;;;0.20;;
35606;SDS011;21729;58.392;15.656;2022-07-15T11:22:56;0.30;;;0.30;;
35606;SDS011;21729;58.392;15.656;2022-07-15T11:25:25;0.45;;;0.20;;
35606;SDS011;21729;58.392;15.656;2022-07-15T11:27:58;0.73;;;0.28;;
35606;SDS011;21729;58.392;15.656;2022-07-15T11:30:28;1.20;;;0.30;;
35606;SDS011;21729;58.392;15.656;2022-07-15T11:32:59;1.50;;;0.30;;
35606;SDS011;21729;58.392;15.656;2022-07-15T11:35:27;0.73;;;0.25;;
35606;SDS011;21729;58.392;15.656;2022-07-15T11:37:59;0.50;;;0.22;;
35606;SDS011;21729;58.392;15.656;2022-07-15T11:40:27;0.68;;;0.30;;
35606;SDS011;21729;58.392;15.656;2022-07-15T11:43:15;1.45;;;0.40;;
35606;SDS011;21729;58.392;15.656;2022-07-15T11:46:01;0.75;;;0.25;;
35606;SDS011;21729;58.392;15.656;2022-07-15T11:48:34;0.60;;;0.40;;
35606;SDS011;21729;58.392;15.656;2022-07-15T11:51:03;0.82;;;0.40;;
35606;SDS011;21729;58.392;15.656;2022-07-15T11:53:36;0.70;;;0.30;;
35606;SDS011;21729;58.392;15.656;2022-07-15T11:56:04;0.90;;;0.37;;
35606;SDS011;21729;58.392;15.656;2022-07-15T11:58:34;0.88;;;0.47;;
35606;SDS011;21729;58.392;15.656;2022-07-15T12:01:03;0.60;;;0.30;;
35606;SDS011;21729;58.392;15.656;2022-07-15T12:03:37;0.30;;;0.30;;
35606;SDS011;21729;58.392;15.656;2022-07-15T12:06:10;0.50;;;0.20;;
35606;SDS011;21729;58.392;15.656;2022-07-15T12:08:41;0.75;;;0.20;;
35606;SDS011;21729;58.392;15.656;2022-07-15T12:11:13;0.60;;;0.25;;
35606;SDS011;21729;58.392;15.656;2022-07-15T12:14:00;0.55;;;0.20;;
35606;SDS011;21729;58.392;15.656;2022-07-15T12:16:29;1.40;;;0.20;;
35606;SDS011;21729;58.392;15.656;2022-07-15T12:18:58;0.35;;;0.22;;
35606;SDS011;21729;58.392;15.656;2022-07-15T12:21:27;0.37;;;0.20;;
35606;SDS011;21729;58.392;15.656;2022-07-15T12:23:58;0.30;;;0.20;;
35606;SDS011;21729;58.392;15.656;2022-07-15T12:26:27;2.70;;;0.30;;
35606;SDS011;21729;58.392;15.656;2022-07-15T12:28:54;0.65;;;0.30;;
35606;SDS011;21729;58.392;15.656;2022-07-15T12:31:25;0.20;;;0.20;;
35606;SDS011;21729;58.392;15.656;2022-07-15T12:33:53;0.50;;;0.30;;
35606;SDS011;21729;58.392;15.656;2022-07-15T12:36:22;1.80;;;0.60;;
35606;SDS011;21729;58.392;15.656;2022-07-15T12:39:04;0.50;;;0.20;;
35606;SDS011;21729;58.392;15.656;2022-07-15T12:41:33;0.30;;;0.10;;
35606;SDS011;21729;58.392;15.656;2022-07-15T12:44:02;1.40;;;0.20;;
35606;SDS011;21729;58.392;15.656;2022-07-15T12:49:45;0.80;;;0.30;;
35606;SDS011;21729;58.392;15.656;2022-07-15T12:52:19;1.05;;;0.22;;
35606;SDS011;21729;58.392;15.656;2022-07-15T12:54:49;0.63;;;0.40;;
35606;SDS011;21729;58.392;15.656;2022-07-15T12:57:21;0.90;;;0.40;;
35606;SDS011;21729;58.392;15.656;2022-07-15T12:59:53;0.32;;;0.30;;
35606;SDS011;21729;58.392;15.656;2022-07-15T13:02:22;1.80;;;0.20;;
35606;SDS011;21729;58.392;15.656;2022-07-15T13:04:49;1.75;;;0.30;;
35606;SDS011;21729;58.392;15.656;2022-07-15T13:07:17;0.70;;;0.30;;
35606;SDS011;21729;58.392;15.656;2022-07-15T13:09:44;1.00;;;0.20;;
35606;SDS011;21729;58.392;15.656;2022-07-15T13:12:12;0.63;;;0.40;;
35606;SDS011;21729;58.392;15.656;2022-07-15T13:14:40;0.60;;;0.30;;
35606;SDS011;21729;58.392;15.656;2022-07-15T13:17:09;0.20;;;0.20;;
35606;SDS011;21729;58.392;15.656;2022-07-15T13:19:36;0.40;;;0.20;;
35606;SDS011;21729;58.392;15.656;2022-07-15T13:22:03;0.75;;;0.10;;
35606;SDS011;21729;58.392;15.656;2022-07-15T13:24:31;0.80;;;0.20;;
35606;SDS011;21729;58.392;15.656;2022-07-15T13:26:58;0.52;;;0.30;;
35606;SDS011;21729;58.392;15.656;2022-07-15T13:29:25;0.40;;;0.20;;
35606;SDS011;21729;58.392;15.656;2022-07-15T13:31:52;0.30;;;0.20;;
35606;SDS011;21729;58.392;15.656;2022-07-15T13:34:21;0.60;;;0.30;;
35606;SDS011;21729;58.392;15.656;2022-07-15T13:36:48;0.60;;;0.20;;
35606;SDS011;21729;58.392;15.656;2022-07-15T13:39:15;0.60;;;0.20;;
35606;SDS011;21729;58.392;15.656;2022-07-15T13:41:42;1.23;;;0.10;;
35606;SDS011;21729;58.392;15.656;2022-07-15T13:44:09;0.63;;;0.20;;
35606;SDS011;21729;58.392;15.656;2022-07-15T13:46:36;1.02;;;0.22;;
35606;SDS011;21729;58.392;15.656;2022-07-15T13:49:03;0.75;;;0.20;;
35606;SDS011;21729;58.392;15.656;2022-07-15T13:51:32;0.30;;;0.25;;
35606;SDS011;21729;58.392;15.656;2022-07-15T13:53:58;0.80;;;0.22;;
35606;SDS011;21729;58.392;15.656;2022-07-15T13:56:26;0.60;;;0.40;;
35606;SDS011;21729;58.392;15.656;2022-07-15T13:58:53;1.63;;;0.55;;
35606;SDS011;21729;58.392;15.656;2022-07-15T14:01:24;0.80;;;0.50;;
35606;SDS011;21729;58.392;15.656;2022-07-15T14:03:52;0.95;;;0.40;;
35606;SDS011;21729;58.392;15.656;2022-07-15T14:06:20;0.77;;;0.40;;
35606;SDS011;21729;58.392;15.656;2022-07-15T14:08:48;1.00;;;0.30;;
35606;SDS011;21729;58.392;15.656;2022-07-15T14:11:15;0.50;;;0.47;;
35606;SDS011;21729;58.392;15.656;2022-07-15T14:13:43;1.05;;;0.70;;
35606;SDS011;21729;58.392;15.656;2022-07-15T14:16:10;0.47;;;0.40;;
35606;SDS011;21729;58.392;15.656;2022-07-15T14:18:37;1.27;;;0.20;;
35606;SDS011;21729;58.392;15.656;2022-07-15T14:21:11;0.70;;;0.30;;
35606;SDS011;21729;58.392;15.656;2022-07-15T14:23:42;1.00;;;0.30;;
35606;SDS011;21729;58.392;15.656;2022-07-15T14:26:11;0.63;;;0.47;;
35606;SDS011;21729;58.392;15.656;2022-07-15T14:28:38;0.45;;;0.40;;
35606;SDS011;21729;58.392;15.656;2022-07-15T14:31:07;1.05;;;0.45;;
35606;SDS011;21729;58.392;15.656;2022-07-15T14:33:38;0.75;;;0.40;;
35606;SDS011;21729;58.392;15.656;2022-07-15T14:36:06;0.70;;;0.30;;
35606;SDS011;21729;58.392;15.656;2022-07-15T14:38:34;2.00;;;0.50;;
35606;SDS011;21729;58.392;15.656;2022-07-15T14:41:01;0.70;;;0.40;;
35606;SDS011;21729;58.392;15.656;2022-07-15T14:43:30;1.10;;;0.45;;
35606;SDS011;21729;58.392;15.656;2022-07-15T14:45:57;0.47;;;0.30;;
35606;SDS011;21729;58.392;15.656;2022-07-15T14:48:24;0.50;;;0.30;;
35606;SDS011;21729;58.392;15.656;2022-07-15T14:50:52;0.35;;;0.35;;
35606;SDS011;21729;58.392;15.656;2022-07-15T14:53:20;0.50;;;0.30;;
35606;SDS011;21729;58.392;15.656;2022-07-15T14:55:47;0.50;;;0.38;;
35606;SDS011;21729;58.392;15.656;2022-07-15T14:58:15;0.52;;;0.30;;
35606;SDS011;21729;58.392;15.656;2022-07-15T15:00:46;0.63;;;0.30;;